Tropical Cyclones
[Index]
Main Index Home Page Stock Weather Photos Extreme Storms Discussion Storm News and Storm Chasing Reports Tropical Cyclones / Hurricanes / Typhoons Weather Data and Links Wild Fires / Bushfires Weather Observation Techniques Weather Picture Catalogue Tornado Pictures and Reports Stock Video Footage and DVDs for sale
Season 1985-1986 Tropical Cyclone COSTA Track Map
Season 1985-1986 Summaries: [BoM-AU] [JTWC-AU] [JTWC-SIO] [JTWC-SPAC] [JTWC-SH]
<<- Previous TC | JTWC 1985-1986 Season | Next TC ->>

click for intensity scale information  Lat/long Grid: Show Hide

 Date Labels: Show Hide

Joint Typhoon Warning Centre Cyclone Data

Name: COSTA

07 Jan 1986 06:00 UTC to 15 Jan 1986 18:00 UTC

    date/time    lat    long     hPa   cat  kts
1986-01-07 06   10.7    54.6                  30          
1986-01-07 12   10.6    54.9                  35          
1986-01-07 18   10.6    55.2            1     40          
1986-01-08 00   10.7    55.6            1     45          
1986-01-08 06   10.9    56.0            1     50          
1986-01-08 12   11.0    56.7            1     50          
1986-01-08 18   11.2    57.5            1     50          
1986-01-09 00   11.1    58.5            1     50          
1986-01-09 06   11.1    59.5            1     45          
1986-01-09 12   12.7    60.3            1     45          
1986-01-09 18   14.5    60.4            1     40          
1986-01-10 00   15.1    59.5            1     40          
1986-01-10 06   15.4    58.4                  35          
1986-01-10 12   15.4    57.8                  35          
1986-01-10 18   15.4    57.2                  30          
1986-01-11 00   15.3    56.6                  30          
1986-01-11 06   15.1    55.9                  35          
1986-01-11 12   14.5    55.3                  35          
1986-01-11 18   13.8    55.4                  35          
1986-01-12 00   13.4    56.4                  35          
1986-01-12 06   13.5    57.4            1     40          
1986-01-12 12   14.0    58.5            1     45          
1986-01-12 18   14.5    59.5            1     50          
1986-01-13 00   15.0    60.5            1     50          
1986-01-13 06   15.6    61.4            2     55          
1986-01-13 12   16.5    62.2            2     60          
1986-01-13 18   17.4    62.9            2     65          
1986-01-14 00   18.2    63.6            2     70          
1986-01-14 06   19.0    64.3            2     70          
1986-01-14 12   19.7    64.9            2     70          
1986-01-14 18   20.4    65.5            2     65          
1986-01-15 00   20.9    66.0            2     65          
1986-01-15 06   21.3    66.5            2     60          
1986-01-15 12   21.4    66.9            2     55          
1986-01-15 18   21.1    67.1            1     45          
Winds are 1-min average.

Tropical cyclone tracks developed by Michael Bath using data from the Joint Typhoon Warning Centre Best Tracks and Google Maps.


[Australian Severe Weather index] [Copyright Notice] [Email Contacts] [Search This Site] [Privacy Policy]
Document: tropical_cyclone_costa.htm Updated: 18 September 2016